Ag Nektarios Aiginas — SX7083 — position and weather

sailwx.info

Track history (hours):
 
Tides and Currents Weather Stations Pressure Air Temp Water Temp Dewpoint Dewpoint Depression Visibility Wind Speed Wind Dir Waves Ship Positions

Ag Nektarios Aiginas

Last reported at 2014-Aug-02 04:33 UTC. Time now 2014-Aug-02 04:42 UTC.
Position N 37°57' E 023°38'.

Length 75 m; draft 2.7 m.

Type: Passenger vessel. MMSI: 237021400.

Date/timePositionNaut miles runAvg speedWind from/ knotsBaromVisibWave heightAir tempDewpointWater temp
2014-Aug-02 04:33N 37°57' E 023°38'0 0.0
2014-Aug-01 21:19N 37°57' E 023°38'810.4
2014-Aug-01 20:33N 37°51' E 023°32'8 7.6
2014-Aug-01 19:31N 37°45' E 023°25'9 9.7
2014-Aug-01 18:33N 37°51' E 023°33'7 6.6
2014-Aug-01 17:33N 37°57' E 023°38'10 9.5
2014-Aug-01 16:33N 37°49' E 023°31'6 5.8
2014-Aug-01 15:29N 37°45' E 023°25'8 9.1
2014-Aug-01 14:33N 37°51' E 023°32'7 7.4
2014-Aug-01 13:33N 37°57' E 023°39'7 6.6
2014-Aug-01 12:33N 37°52' E 023°33'9 8.8
2014-Aug-01 11:31N 37°45' E 023°25'6 6.4
2014-Aug-01 10:33N 37°49' E 023°30'10 9.6
2014-Aug-01 09:33N 37°57' E 023°38'3 2.8
2014-Aug-01 08:33N 37°55' E 023°36'1312.8
2014-Aug-01 07:33N 37°46' E 023°25'3 2.5
2014-Aug-01 06:33N 37°47' E 023°27'1312.1
2014-Aug-01 05:31N 37°56' E 023°38'1 0.0
2014-Jul-31 17:10N 37°57' E 023°38'3 4.8
2014-Jul-31 16:33N 37°55' E 023°36'1312.8
2014-Jul-31 15:34N 37°45' E 023°25'3 2.7
2014-Jul-31 14:33N 37°47' E 023°27'1212.1
2014-Jul-31 13:33N 37°56' E 023°37'1 1.0
2014-Jul-31 12:33N 37°56' E 023°36'1312.9
2014-Jul-31 11:34N 37°46' E 023°25'0 0.1
2014-Jul-31 10:33N 37°46' E 023°25'1212.6
2014-Jul-31 09:33N 37°55' E 023°36'1 0.9
2014-Jul-31 08:33N 37°56' E 023°37'1312.8
2014-Jul-31 07:33N 37°47' E 023°26'1 0.9
2014-Jul-31 06:33N 37°47' E 023°27'1212.5
2014-Jul-31 05:34N 37°56' E 023°37'1 0.9
2014-Jul-31 04:34N 37°57' E 023°38'2 0.1
2014-Jul-30 16:33N 37°56' E 023°37'1312.9
2014-Jul-30 15:33N 37°46' E 023°25'0 0.4
2014-Jul-30 14:33N 37°46' E 023°25'1212.5
2014-Jul-30 13:34N 37°55' E 023°36'1 0.9
2014-Jul-30 12:34N 37°56' E 023°36'1312.7
2014-Jul-30 11:33N 37°46' E 023°25'1 1.3
2014-Jul-30 10:34N 37°45' E 023°25'1212.5
2014-Jul-30 09:34N 37°54' E 023°36'2 1.8
2014-Jul-30 08:34N 37°56' E 023°37'1212.5
2014-Jul-30 07:34N 37°47' E 023°26'0 0.1
2014-Jul-30 06:33N 37°47' E 023°26'1212.5
2014-Jul-30 05:34N 37°56' E 023°37'2 1.5
2014-Jul-30 04:33N 37°57' E 023°38'2 0.1
2014-Jul-29 16:33N 37°56' E 023°37'1312.8
2014-Jul-29 15:34N 37°47' E 023°26'1 0.6
2014-Jul-29 14:34N 37°46' E 023°25'1212.4
2014-Jul-29 13:34N 37°55' E 023°36'1 0.8
2014-Jul-29 12:33N 37°56' E 023°37'1312.9
2014-Jul-29 11:33N 37°46' E 023°25'0 0.4
2014-Jul-29 10:33N 37°46' E 023°25'1212.4
2014-Jul-29 09:34N 37°55' E 023°36'2 1.9
2014-Jul-29 08:33N 37°56' E 023°37'1312.5
2014-Jul-29 07:34N 37°47' E 023°26'1 0.6
2014-Jul-29 06:34N 37°47' E 023°26'1212.4
2014-Jul-29 05:33N 37°56' E 023°37'2 1.6
2014-Jul-29 04:33N 37°57' E 023°38'0 0.0
2014-Jul-28 17:15N 37°57' E 023°38'4 6.0
2014-Jul-28 16:33N 37°54' E 023°35'1211.6
2014-Jul-28 15:33N 37°45' E 023°25'1 1.4
2014-Jul-28 14:33N 37°46' E 023°25'1212.5
2014-Jul-28 13:33N 37°55' E 023°36'2 1.5
2014-Jul-28 12:33N 37°56' E 023°36'1312.8
2014-Jul-28 11:33N 37°47' E 023°26'1 0.8
2014-Jul-28 10:33N 37°46' E 023°25'1312.5
2014-Jul-28 09:34N 37°55' E 023°36'0 0.4
2014-Jul-28 08:33N 37°55' E 023°36'1312.7
2014-Jul-28 07:34N 37°46' E 023°25'1 0.6
2014-Jul-28 06:33N 37°47' E 023°26'1212.6
2014-Jul-28 05:33N 37°56' E 023°37'2 1.8
2014-Jul-28 04:33N 37°57' E 023°39'0 0.0
2014-Jul-27 20:31N 37°57' E 023°39'8 8.1
2014-Jul-27 19:33N 37°51' E 023°32'8 7.5
2014-Jul-27 18:29N 37°45' E 023°26'4 4.4
2014-Jul-27 17:33N 37°48' E 023°29'1211.7
2014-Jul-27 16:33N 37°57' E 023°38'8 7.8
2014-Jul-27 15:33N 37°51' E 023°32'8 7.6
2014-Jul-27 14:31N 37°45' E 023°26'4 3.9
2014-Jul-27 13:33N 37°48' E 023°28'1211.3
2014-Jul-27 12:29N 37°57' E 023°39'4 4.6
2014-Jul-27 11:33N 37°54' E 023°35'8 4.0
2014-Jul-27 09:33N 37°48' E 023°28'9 4.5
2014-Jul-27 07:33N 37°55' E 023°36'1312.5
2014-Jul-27 06:33N 37°45' E 023°25'5 5.5
2014-Jul-27 05:33N 37°49' E 023°30'10 9.4
2014-Jul-27 04:28N 37°57' E 023°38'0 0.0
2014-Jul-26 17:04N 37°57' E 023°38'2 3.2
2014-Jul-26 16:33N 37°56' E 023°37'1312.6
2014-Jul-26 15:33N 37°47' E 023°26'1 1.2
2014-Jul-26 14:33N 37°46' E 023°25'1312.6
2014-Jul-26 13:33N 37°55' E 023°36'1 0.7
2014-Jul-26 12:33N 37°56' E 023°36'1312.7
2014-Jul-26 11:33N 37°46' E 023°25'1 0.9
2014-Jul-26 10:33N 37°46' E 023°25'1312.6
2014-Jul-26 09:33N 37°55' E 023°36'1 0.8
2014-Jul-26 08:33N 37°55' E 023°36'1312.6
2014-Jul-26 07:33N 37°46' E 023°25'1 1.2
2014-Jul-26 06:33N 37°47' E 023°26'1212.5
2014-Jul-26 05:33N 37°56' E 023°37'1 1.1
2014-Jul-26 04:33N 37°57' E 023°38'0 0.0
2014-Jul-25 20:30N 37°57' E 023°38'1010.7
2014-Jul-25 19:33N 37°49' E 023°30'5 4.7
2014-Jul-25 18:33N 37°46' E 023°25'1212.4
2014-Jul-25 17:33N 37°55' E 023°36'0 0.3
2014-Jul-25 16:33N 37°55' E 023°36'1312.9
2014-Jul-25 15:33N 37°46' E 023°25'3 2.8
2014-Jul-25 14:33N 37°48' E 023°27'1212.1
2014-Jul-25 13:33N 37°56' E 023°38'1 1.1
2014-Jul-25 12:33N 37°56' E 023°37'1312.8
2014-Jul-25 11:33N 37°47' E 023°25'0 0.0
2014-Jul-25 10:30N 37°47' E 023°25'1212.3
2014-Jul-25 09:33N 37°55' E 023°35'2 2.2
2014-Jul-25 08:33N 37°56' E 023°38'1212.4
2014-Jul-25 07:33N 37°47' E 023°27'1 0.7
2014-Jul-25 06:33N 37°47' E 023°26'1212.4
2014-Jul-25 05:33N 37°56' E 023°37'0 0.0
2014-Jul-24 16:33N 37°56' E 023°37'1313.0
2014-Jul-24 15:34N 37°47' E 023°26'0 0.2
2014-Jul-24 14:30N 37°47' E 023°26'1212.3
2014-Jul-24 13:34N 37°55' E 023°36'1 0.7
2014-Jul-24 12:34N 37°56' E 023°36'1312.8
2014-Jul-24 11:34N 37°46' E 023°25'3 2.6
2014-Jul-24 10:15N 37°48' E 023°29'912.4
2014-Jul-24 09:34N 37°55' E 023°36'2 2.1
2014-Jul-24 08:34N 37°56' E 023°38'1312.7
2014-Jul-24 07:33N 37°47' E 023°27'0 0.4
2014-Jul-24 06:33N 37°47' E 023°26'1212.4
2014-Jul-24 05:34N 37°56' E 023°37'1 1.3
2014-Jul-24 04:33N 37°57' E 023°38'0 0.0
2014-Jul-23 17:12N 37°57' E 023°38'4 6.7
2014-Jul-23 16:33N 37°54' E 023°35'1211.5
2014-Jul-23 15:33N 37°45' E 023°25'2 1.7
2014-Jul-23 14:33N 37°46' E 023°25'1212.5
2014-Jul-23 13:33N 37°55' E 023°36'0 0.3
2014-Jul-23 12:33N 37°55' E 023°36'1312.7
2014-Jul-23 11:33N 37°46' E 023°25'12 6.1
2014-Jul-23 09:33N 37°55' E 023°36'3 2.8
2014-Jul-23 08:33N 37°57' E 023°38'1312.5
2014-Jul-23 07:33N 37°47' E 023°27'1 1.4
2014-Jul-23 06:33N 37°47' E 023°26'1312.7
2014-Jul-23 05:33N 37°56' E 023°37'  
Track history (hours):
 
Tides and Currents Weather Stations Pressure Air Temp Water Temp Dewpoint Dewpoint Depression Visibility Wind Speed Wind Dir Waves Ship Positions

Ag Nektarios Aiginas

Last reported at 2014-Aug-02 04:33 UTC. Time now 2014-Aug-02 04:42 UTC.
Position N 37°57' E 023°38'.

Length 75 m; draft 2.7 m.

Type: Passenger vessel. MMSI: 237021400.

Date/timePositionNaut miles runAvg speedWind from/ knotsBaromVisibWave heightAir tempDewpointWater temp
2014-Aug-02 04:33N 37°57' E 023°38'0 0.0
2014-Aug-01 21:19N 37°57' E 023°38'810.4
2014-Aug-01 20:33N 37°51' E 023°32'8 7.6
2014-Aug-01 19:31N 37°45' E 023°25'9 9.7
2014-Aug-01 18:33N 37°51' E 023°33'7 6.6
2014-Aug-01 17:33N 37°57' E 023°38'10 9.5
2014-Aug-01 16:33N 37°49' E 023°31'6 5.8
2014-Aug-01 15:29N 37°45' E 023°25'8 9.1
2014-Aug-01 14:33N 37°51' E 023°32'7 7.4
2014-Aug-01 13:33N 37°57' E 023°39'7 6.6
2014-Aug-01 12:33N 37°52' E 023°33'9 8.8
2014-Aug-01 11:31N 37°45' E 023°25'6 6.4
2014-Aug-01 10:33N 37°49' E 023°30'10 9.6
2014-Aug-01 09:33N 37°57' E 023°38'3 2.8
2014-Aug-01 08:33N 37°55' E 023°36'1312.8
2014-Aug-01 07:33N 37°46' E 023°25'3 2.5
2014-Aug-01 06:33N 37°47' E 023°27'1312.1
2014-Aug-01 05:31N 37°56' E 023°38'1 0.0
2014-Jul-31 17:10N 37°57' E 023°38'3 4.8
2014-Jul-31 16:33N 37°55' E 023°36'1312.8
2014-Jul-31 15:34N 37°45' E 023°25'3 2.7
2014-Jul-31 14:33N 37°47' E 023°27'1212.1
2014-Jul-31 13:33N 37°56' E 023°37'1 1.0
2014-Jul-31 12:33N 37°56' E 023°36'1312.9
2014-Jul-31 11:34N 37°46' E 023°25'0 0.1
2014-Jul-31 10:33N 37°46' E 023°25'1212.6
2014-Jul-31 09:33N 37°55' E 023°36'1 0.9
2014-Jul-31 08:33N 37°56' E 023°37'1312.8
2014-Jul-31 07:33N 37°47' E 023°26'1 0.9
2014-Jul-31 06:33N 37°47' E 023°27'1212.5
2014-Jul-31 05:34N 37°56' E 023°37'1 0.9
2014-Jul-31 04:34N 37°57' E 023°38'2 0.1
2014-Jul-30 16:33N 37°56' E 023°37'1312.9
2014-Jul-30 15:33N 37°46' E 023°25'0 0.4
2014-Jul-30 14:33N 37°46' E 023°25'1212.5
2014-Jul-30 13:34N 37°55' E 023°36'1 0.9
2014-Jul-30 12:34N 37°56' E 023°36'1312.7
2014-Jul-30 11:33N 37°46' E 023°25'1 1.3
2014-Jul-30 10:34N 37°45' E 023°25'1212.5
2014-Jul-30 09:34N 37°54' E 023°36'2 1.8
2014-Jul-30 08:34N 37°56' E 023°37'1212.5
2014-Jul-30 07:34N 37°47' E 023°26'0 0.1
2014-Jul-30 06:33N 37°47' E 023°26'1212.5
2014-Jul-30 05:34N 37°56' E 023°37'2 1.5
2014-Jul-30 04:33N 37°57' E 023°38'2 0.1
2014-Jul-29 16:33N 37°56' E 023°37'1312.8
2014-Jul-29 15:34N 37°47' E 023°26'1 0.6
2014-Jul-29 14:34N 37°46' E 023°25'1212.4
2014-Jul-29 13:34N 37°55' E 023°36'1 0.8
2014-Jul-29 12:33N 37°56' E 023°37'1312.9
2014-Jul-29 11:33N 37°46' E 023°25'0 0.4
2014-Jul-29 10:33N 37°46' E 023°25'1212.4
2014-Jul-29 09:34N 37°55' E 023°36'2 1.9
2014-Jul-29 08:33N 37°56' E 023°37'1312.5
2014-Jul-29 07:34N 37°47' E 023°26'1 0.6
2014-Jul-29 06:34N 37°47' E 023°26'1212.4
2014-Jul-29 05:33N 37°56' E 023°37'2 1.6
2014-Jul-29 04:33N 37°57' E 023°38'0 0.0
2014-Jul-28 17:15N 37°57' E 023°38'4 6.0
2014-Jul-28 16:33N 37°54' E 023°35'1211.6
2014-Jul-28 15:33N 37°45' E 023°25'1 1.4
2014-Jul-28 14:33N 37°46' E 023°25'1212.5
2014-Jul-28 13:33N 37°55' E 023°36'2 1.5
2014-Jul-28 12:33N 37°56' E 023°36'1312.8
2014-Jul-28 11:33N 37°47' E 023°26'1 0.8
2014-Jul-28 10:33N 37°46' E 023°25'1312.5
2014-Jul-28 09:34N 37°55' E 023°36'0 0.4
2014-Jul-28 08:33N 37°55' E 023°36'1312.7
2014-Jul-28 07:34N 37°46' E 023°25'1 0.6
2014-Jul-28 06:33N 37°47' E 023°26'1212.6
2014-Jul-28 05:33N 37°56' E 023°37'2 1.8
2014-Jul-28 04:33N 37°57' E 023°39'0 0.0
2014-Jul-27 20:31N 37°57' E 023°39'8 8.1
2014-Jul-27 19:33N 37°51' E 023°32'8 7.5
2014-Jul-27 18:29N 37°45' E 023°26'4 4.4
2014-Jul-27 17:33N 37°48' E 023°29'1211.7
2014-Jul-27 16:33N 37°57' E 023°38'8 7.8
2014-Jul-27 15:33N 37°51' E 023°32'8 7.6
2014-Jul-27 14:31N 37°45' E 023°26'4 3.9
2014-Jul-27 13:33N 37°48' E 023°28'1211.3
2014-Jul-27 12:29N 37°57' E 023°39'4 4.6
2014-Jul-27 11:33N 37°54' E 023°35'8 4.0
2014-Jul-27 09:33N 37°48' E 023°28'9 4.5
2014-Jul-27 07:33N 37°55' E 023°36'1312.5
2014-Jul-27 06:33N 37°45' E 023°25'5 5.5
2014-Jul-27 05:33N 37°49' E 023°30'10 9.4
2014-Jul-27 04:28N 37°57' E 023°38'0 0.0
2014-Jul-26 17:04N 37°57' E 023°38'2 3.2
2014-Jul-26 16:33N 37°56' E 023°37'1312.6
2014-Jul-26 15:33N 37°47' E 023°26'1 1.2
2014-Jul-26 14:33N 37°46' E 023°25'1312.6
2014-Jul-26 13:33N 37°55' E 023°36'1 0.7
2014-Jul-26 12:33N 37°56' E 023°36'1312.7
2014-Jul-26 11:33N 37°46' E 023°25'1 0.9
2014-Jul-26 10:33N 37°46' E 023°25'1312.6
2014-Jul-26 09:33N 37°55' E 023°36'1 0.8
2014-Jul-26 08:33N 37°55' E 023°36'1312.6
2014-Jul-26 07:33N 37°46' E 023°25'1 1.2
2014-Jul-26 06:33N 37°47' E 023°26'1212.5
2014-Jul-26 05:33N 37°56' E 023°37'1 1.1
2014-Jul-26 04:33N 37°57' E 023°38'0 0.0
2014-Jul-25 20:30N 37°57' E 023°38'1010.7
2014-Jul-25 19:33N 37°49' E 023°30'5 4.7
2014-Jul-25 18:33N 37°46' E 023°25'1212.4
2014-Jul-25 17:33N 37°55' E 023°36'0 0.3
2014-Jul-25 16:33N 37°55' E 023°36'1312.9
2014-Jul-25 15:33N 37°46' E 023°25'3 2.8
2014-Jul-25 14:33N 37°48' E 023°27'1212.1
2014-Jul-25 13:33N 37°56' E 023°38'1 1.1
2014-Jul-25 12:33N 37°56' E 023°37'1312.8
2014-Jul-25 11:33N 37°47' E 023°25'0 0.0
2014-Jul-25 10:30N 37°47' E 023°25'1212.3
2014-Jul-25 09:33N 37°55' E 023°35'2 2.2
2014-Jul-25 08:33N 37°56' E 023°38'1212.4
2014-Jul-25 07:33N 37°47' E 023°27'1 0.7
2014-Jul-25 06:33N 37°47' E 023°26'1212.4
2014-Jul-25 05:33N 37°56' E 023°37'0 0.0
2014-Jul-24 16:33N 37°56' E 023°37'1313.0
2014-Jul-24 15:34N 37°47' E 023°26'0 0.2
2014-Jul-24 14:30N 37°47' E 023°26'1212.3
2014-Jul-24 13:34N 37°55' E 023°36'1 0.7
2014-Jul-24 12:34N 37°56' E 023°36'1312.8
2014-Jul-24 11:34N 37°46' E 023°25'3 2.6
2014-Jul-24 10:15N 37°48' E 023°29'912.4
2014-Jul-24 09:34N 37°55' E 023°36'2 2.1
2014-Jul-24 08:34N 37°56' E 023°38'1312.7
2014-Jul-24 07:33N 37°47' E 023°27'0 0.4
2014-Jul-24 06:33N 37°47' E 023°26'1212.4
2014-Jul-24 05:34N 37°56' E 023°37'1 1.3
2014-Jul-24 04:33N 37°57' E 023°38'0 0.0
2014-Jul-23 17:12N 37°57' E 023°38'4 6.7
2014-Jul-23 16:33N 37°54' E 023°35'1211.5
2014-Jul-23 15:33N 37°45' E 023°25'2 1.7
2014-Jul-23 14:33N 37°46' E 023°25'1212.5
2014-Jul-23 13:33N 37°55' E 023°36'0 0.3
2014-Jul-23 12:33N 37°55' E 023°36'1312.7
2014-Jul-23 11:33N 37°46' E 023°25'12 6.1
2014-Jul-23 09:33N 37°55' E 023°36'3 2.8
2014-Jul-23 08:33N 37°57' E 023°38'1312.5
2014-Jul-23 07:33N 37°47' E 023°27'1 1.4
2014-Jul-23 06:33N 37°47' E 023°26'1312.7
2014-Jul-23 05:33N 37°56' E 023°37'  

Dump ship's entire track history